createdAt,value
2023-04-09T00:01:05.443Z,3.09
2023-04-09T00:02:10.593Z,3.09
2023-04-09T00:03:14.598Z,3.10
2023-04-09T00:04:17.308Z,3.11
2023-04-09T00:05:21.348Z,3.12
2023-04-09T00:06:23.977Z,3.10
2023-04-09T00:07:28.316Z,3.11
2023-04-09T00:08:30.939Z,3.11
2023-04-09T00:09:34.521Z,3.13
2023-04-09T00:10:37.057Z,3.12
2023-04-09T00:11:40.869Z,3.11
2023-04-09T00:12:43.491Z,3.12
2023-04-09T00:13:47.061Z,3.13
2023-04-09T00:14:49.606Z,3.13
2023-04-09T00:15:53.432Z,3.11
2023-04-09T00:16:57.295Z,3.14
2023-04-09T00:18:01.541Z,3.11
2023-04-09T00:19:04.219Z,3.13
2023-04-09T00:20:09.330Z,3.14
2023-04-09T00:21:11.888Z,3.14
2023-04-09T00:22:15.806Z,3.13
2023-04-09T00:23:18.379Z,3.14
2023-04-09T00:24:22.285Z,3.13
2023-04-09T00:25:24.971Z,3.13
2023-04-09T00:26:28.798Z,3.12
2023-04-09T00:27:31.132Z,3.13
2023-04-09T00:28:34.848Z,3.13
2023-04-09T00:29:37.179Z,3.12
2023-04-09T00:30:40.839Z,3.11
2023-04-09T00:31:43.694Z,3.12
2023-04-09T00:32:49.103Z,3.12
2023-04-09T00:33:51.803Z,3.12
2023-04-09T00:34:56.031Z,3.12
2023-04-09T00:35:58.619Z,3.12
2023-04-09T00:37:02.553Z,3.11
2023-04-09T00:38:05.282Z,3.11
2023-04-09T00:39:08.933Z,3.10
2023-04-09T00:40:12.077Z,3.08
2023-04-09T00:41:15.749Z,3.09
2023-04-09T00:42:18.322Z,3.08
2023-04-09T00:43:22.492Z,3.06
2023-04-09T00:44:25.343Z,3.07
2023-04-09T00:45:29.166Z,3.05
2023-04-09T00:46:32.964Z,3.06
2023-04-09T00:47:36.983Z,3.04
2023-04-09T00:48:41.295Z,3.03
2023-04-09T00:49:45.202Z,3.03
2023-04-09T00:50:47.854Z,3.03
2023-04-09T00:51:51.581Z,3.02
2023-04-09T00:52:54.329Z,2.98
2023-04-09T00:53:58.139Z,2.99
2023-04-09T00:55:01.339Z,3.02
2023-04-09T00:56:06.713Z,3.02
2023-04-09T00:57:11.442Z,3.01
2023-04-09T00:58:15.658Z,2.99
2023-04-09T00:59:18.647Z,2.97
2023-04-09T01:00:22.360Z,2.94
2023-04-09T01:01:24.643Z,2.97
2023-04-09T01:02:28.937Z,2.95
2023-04-09T01:03:31.975Z,2.95
2023-04-09T01:04:38.500Z,2.95
2023-04-09T01:05:51.296Z,2.93
2023-04-09T01:07:00.731Z,2.92
2023-04-09T01:08:13.220Z,2.91
2023-04-09T01:09:23.318Z,2.91
2023-04-09T01:10:34.448Z,2.93
2023-04-09T01:11:43.998Z,2.90
2023-04-09T01:12:54.662Z,2.88
2023-04-09T01:14:07.153Z,2.89
2023-04-09T01:15:14.154Z,2.89
2023-04-09T01:16:20.498Z,2.86
2023-04-09T01:17:31.503Z,2.88
2023-04-09T01:18:41.862Z,2.87
2023-04-09T01:19:52.853Z,2.87
2023-04-09T01:21:01.138Z,2.88
2023-04-09T01:22:12.155Z,2.89
2023-04-09T01:23:20.118Z,2.90
2023-04-09T01:24:46.335Z,2.91
2023-04-09T01:26:03.530Z,2.93
2023-04-09T01:27:09.274Z,2.94
2023-04-09T01:28:18.814Z,2.92
2023-04-09T01:29:24.326Z,2.93
2023-04-09T01:30:28.896Z,2.91
2023-04-09T01:31:35.905Z,2.89
2023-04-09T01:32:41.054Z,2.87
2023-04-09T01:33:45.843Z,2.87
2023-04-09T01:34:49.098Z,2.85
2023-04-09T01:35:54.347Z,2.84
2023-04-09T01:36:59.250Z,2.81
2023-04-09T01:38:04.450Z,2.82
2023-04-09T01:39:07.644Z,2.82
2023-04-09T01:40:12.438Z,2.83
2023-04-09T01:41:17.784Z,2.86
2023-04-09T01:42:22.362Z,2.86
2023-04-09T01:43:28.024Z,2.90
2023-04-09T01:44:32.262Z,2.92
2023-04-09T01:45:35.289Z,2.93
2023-04-09T01:46:41.095Z,2.97
2023-04-09T01:47:44.065Z,2.98
2023-04-09T01:48:48.208Z,2.98
2023-04-09T01:49:52.199Z,3.00
2023-04-09T01:50:55.746Z,3.02
2023-04-09T01:51:58.514Z,3.03
2023-04-09T01:53:02.940Z,3.05
2023-04-09T01:54:06.022Z,3.05
2023-04-09T01:55:10.376Z,3.08
2023-04-09T01:56:13.234Z,3.10
2023-04-09T01:57:16.859Z,3.12
2023-04-09T01:58:19.650Z,3.13
2023-04-09T01:59:24.756Z,3.15
2023-04-09T02:00:35.829Z,3.15
2023-04-09T02:01:44.764Z,3.13
2023-04-09T02:02:55.663Z,3.15
2023-04-09T02:04:04.228Z,3.13
2023-04-09T02:05:11.033Z,3.12
2023-04-09T02:06:17.819Z,3.12
2023-04-09T02:07:28.714Z,3.11
2023-04-09T02:08:35.919Z,3.11
2023-04-09T02:09:40.925Z,3.07
2023-04-09T02:10:53.384Z,3.05
2023-04-09T02:12:01.150Z,3.01
2023-04-09T02:13:06.394Z,2.97
2023-04-09T02:14:11.538Z,2.94
2023-04-09T02:15:40.722Z,2.90
2023-04-09T02:16:43.804Z,2.87
2023-04-09T02:17:47.651Z,2.85
2023-04-09T02:18:53.804Z,2.82
2023-04-09T02:19:57.890Z,2.78
2023-04-09T02:21:00.840Z,2.78
2023-04-09T02:22:06.418Z,2.75
2023-04-09T02:23:09.203Z,2.73
2023-04-09T02:24:12.792Z,2.71
2023-04-09T02:25:15.931Z,2.69
2023-04-09T02:26:19.568Z,2.66
2023-04-09T02:27:22.209Z,2.68
2023-04-09T02:28:25.951Z,2.65
2023-04-09T02:29:28.222Z,2.66
2023-04-09T02:30:31.701Z,2.65
2023-04-09T02:31:35.732Z,2.67
2023-04-09T02:32:39.464Z,2.67
2023-04-09T02:33:42.707Z,2.67
2023-04-09T02:34:46.281Z,2.64
2023-04-09T02:35:48.897Z,2.68
2023-04-09T02:36:52.508Z,2.68
2023-04-09T02:37:56.205Z,2.70
2023-04-09T02:38:58.788Z,2.73
2023-04-09T02:40:02.410Z,2.74
2023-04-09T02:41:05.177Z,2.76
2023-04-09T02:42:09.194Z,2.79
2023-04-09T02:43:11.737Z,2.82
2023-04-09T02:44:15.478Z,2.84
2023-04-09T02:45:18.351Z,2.86
2023-04-09T02:46:22.074Z,2.89
2023-04-09T02:47:27.381Z,2.93
2023-04-09T02:48:31.116Z,2.97
2023-04-09T02:49:33.942Z,3.00
2023-04-09T02:50:37.857Z,3.02
2023-04-09T02:51:40.407Z,3.07
2023-04-09T02:52:44.075Z,3.10
2023-04-09T02:53:46.735Z,3.13
2023-04-09T02:54:50.479Z,3.16
2023-04-09T02:55:52.733Z,3.19
2023-04-09T02:56:56.624Z,3.21
2023-04-09T02:57:59.221Z,3.24
2023-04-09T02:59:02.938Z,3.25
2023-04-09T03:00:05.843Z,3.29
2023-04-09T03:01:09.502Z,3.32
2023-04-09T03:02:12.004Z,3.34
2023-04-09T03:03:16.921Z,3.38
2023-04-09T03:04:19.534Z,3.41
2023-04-09T03:05:24.288Z,3.39
2023-04-09T03:06:27.023Z,3.45
2023-04-09T03:07:30.700Z,3.48
2023-04-09T03:08:33.154Z,3.52
2023-04-09T03:09:36.931Z,3.52
2023-04-09T03:10:39.100Z,3.57
2023-04-09T03:11:42.712Z,3.58
2023-04-09T03:12:45.629Z,3.61
2023-04-09T03:13:49.248Z,3.63
2023-04-09T03:14:51.788Z,3.67
2023-04-09T03:15:55.644Z,3.70
2023-04-09T03:16:58.438Z,3.71
2023-04-09T03:18:02.212Z,3.76
2023-04-09T03:19:06.350Z,3.79
2023-04-09T03:20:10.546Z,3.83
2023-04-09T03:21:15.134Z,3.87
2023-04-09T03:22:17.787Z,3.92
2023-04-09T03:23:21.422Z,3.95
2023-04-09T03:24:23.972Z,3.99
2023-04-09T03:25:27.714Z,4.04
2023-04-09T03:26:30.171Z,4.06
2023-04-09T03:27:34.544Z,4.11
2023-04-09T03:28:37.093Z,4.14
2023-04-09T03:29:40.895Z,4.17
2023-04-09T03:30:43.452Z,4.18
2023-04-09T03:31:47.060Z,4.22
2023-04-09T03:32:49.683Z,4.24
2023-04-09T03:33:53.375Z,4.28
2023-04-09T03:34:57.077Z,4.33
2023-04-09T03:36:00.711Z,4.29
2023-04-09T03:37:04.460Z,4.41
2023-04-09T03:38:06.955Z,4.44
2023-04-09T03:39:10.729Z,4.49
2023-04-09T03:40:13.436Z,4.52
2023-04-09T03:41:17.395Z,4.55
2023-04-09T03:42:20.058Z,4.58
2023-04-09T03:43:23.720Z,4.61
2023-04-09T03:44:26.196Z,4.66
2023-04-09T03:45:31.288Z,4.69
2023-04-09T03:46:34.012Z,4.74
2023-04-09T03:47:37.773Z,4.77
2023-04-09T03:48:40.449Z,4.82
2023-04-09T03:49:44.161Z,4.85
2023-04-09T03:50:47.903Z,4.88
2023-04-09T03:51:51.614Z,4.90
2023-04-09T03:52:53.807Z,4.94
2023-04-09T03:53:57.550Z,4.97
2023-04-09T03:55:00.180Z,4.99
2023-04-09T03:56:04.290Z,5.05
2023-04-09T03:57:06.881Z,5.10
2023-04-09T03:58:11.006Z,5.01
2023-04-09T03:59:13.514Z,5.18
2023-04-09T04:00:17.495Z,5.23
2023-04-09T04:01:20.127Z,5.28
2023-04-09T04:02:23.808Z,5.33
2023-04-09T04:03:26.698Z,5.37
2023-04-09T04:04:30.398Z,5.41
2023-04-09T04:05:32.702Z,5.45
2023-04-09T04:06:37.845Z,5.47
2023-04-09T04:07:40.522Z,5.51
2023-04-09T04:08:45.072Z,5.55
2023-04-09T04:09:47.634Z,5.60
2023-04-09T04:10:51.222Z,5.62
2023-04-09T04:11:55.942Z,5.64
2023-04-09T04:12:59.653Z,5.71
2023-04-09T04:14:02.373Z,5.75
2023-04-09T04:15:06.826Z,5.78
2023-04-09T04:16:10.457Z,5.84
2023-04-09T04:17:14.274Z,5.90
2023-04-09T04:18:16.441Z,5.95
2023-04-09T04:19:20.088Z,5.99
2023-04-09T04:20:22.313Z,6.05
2023-04-09T04:21:25.903Z,6.08
2023-04-09T04:22:29.973Z,6.14
2023-04-09T04:23:35.376Z,6.20
2023-04-09T04:24:38.069Z,6.25
2023-04-09T04:25:43.430Z,6.29
2023-04-09T04:26:46.013Z,6.34
2023-04-09T04:27:49.579Z,6.40
2023-04-09T04:28:52.336Z,6.45
2023-04-09T04:29:58.859Z,6.49
2023-04-09T04:31:01.578Z,6.51
2023-04-09T04:32:05.424Z,6.55
2023-04-09T04:33:08.047Z,6.60
2023-04-09T04:34:11.749Z,6.64
2023-04-09T04:35:14.646Z,6.62
2023-04-09T04:36:18.413Z,6.73
2023-04-09T04:37:21.006Z,6.78
2023-04-09T04:38:26.708Z,6.82
2023-04-09T04:39:31.445Z,6.86
2023-04-09T04:40:35.209Z,6.90
2023-04-09T04:41:38.807Z,6.93
2023-04-09T04:42:41.311Z,7.01
2023-04-09T04:43:45.096Z,7.07
2023-04-09T04:44:47.223Z,7.14
2023-04-09T04:45:53.091Z,7.21
2023-04-09T04:46:56.389Z,7.28
2023-04-09T04:48:00.085Z,7.32
2023-04-09T04:49:02.361Z,7.36
2023-04-09T04:50:07.161Z,7.40
2023-04-09T04:51:09.814Z,7.45
2023-04-09T04:52:13.713Z,7.52
2023-04-09T04:53:16.628Z,7.61
2023-04-09T04:54:21.893Z,7.75
2023-04-09T04:55:24.477Z,7.88
2023-04-09T04:56:28.219Z,7.96
2023-04-09T04:57:30.852Z,8.02
2023-04-09T04:58:34.609Z,8.10
2023-04-09T04:59:38.970Z,8.15
2023-04-09T05:00:42.584Z,8.21
2023-04-09T05:01:44.879Z,8.17
2023-04-09T05:02:48.712Z,8.15
2023-04-09T05:03:51.420Z,8.21
2023-04-09T05:04:55.142Z,8.20
2023-04-09T05:05:58.451Z,8.23
2023-04-09T05:07:01.466Z,8.20
2023-04-09T05:08:05.409Z,8.22
2023-04-09T05:09:07.887Z,8.21
2023-04-09T05:10:13.093Z,8.22
2023-04-09T05:11:17.205Z,8.17
2023-04-09T05:12:19.855Z,8.12
2023-04-09T05:13:23.614Z,8.16
2023-04-09T05:14:26.468Z,8.16
2023-04-09T05:15:30.148Z,8.18
2023-04-09T05:16:33.280Z,8.16
2023-04-09T05:17:37.240Z,8.16
2023-04-09T05:18:39.827Z,8.20
2023-04-09T05:19:43.474Z,8.21
2023-04-09T05:20:46.741Z,8.21
2023-04-09T05:21:49.271Z,8.19
2023-04-09T05:22:52.960Z,8.19
2023-04-09T05:23:55.138Z,8.19
2023-04-09T05:24:58.844Z,8.09
2023-04-09T05:26:03.601Z,8.10
2023-04-09T05:27:06.129Z,8.06
2023-04-09T05:28:11.618Z,8.13
2023-04-09T05:29:15.289Z,8.16
2023-04-09T05:30:18.153Z,8.16
2023-04-09T05:31:21.629Z,8.15
2023-04-09T05:32:24.266Z,8.19
2023-04-09T05:33:27.977Z,8.22
2023-04-09T05:34:30.505Z,8.25
2023-04-09T05:35:34.041Z,8.25
2023-04-09T05:36:36.656Z,8.31
2023-04-09T05:37:40.309Z,8.31
2023-04-09T05:38:43.009Z,8.35
2023-04-09T05:39:46.587Z,8.33
2023-04-09T05:40:49.368Z,8.37
2023-04-09T05:41:54.428Z,8.38
2023-04-09T05:42:57.235Z,8.37
2023-04-09T05:44:01.118Z,8.34
2023-04-09T05:45:04.060Z,8.39
2023-04-09T05:46:07.928Z,8.42
2023-04-09T05:47:10.562Z,8.45
2023-04-09T05:48:14.298Z,8.45
2023-04-09T05:49:16.991Z,8.50
2023-04-09T05:50:20.741Z,8.51
2023-04-09T05:51:23.490Z,8.54
2023-04-09T05:52:27.090Z,8.59
2023-04-09T05:53:31.619Z,8.65
2023-04-09T05:54:37.164Z,8.62
2023-04-09T05:55:41.044Z,8.62
2023-04-09T05:56:43.868Z,8.61
2023-04-09T05:57:49.051Z,8.63
2023-04-09T05:58:52.221Z,8.62
2023-04-09T05:59:55.968Z,8.62
2023-04-09T06:00:58.146Z,8.59
2023-04-09T06:02:01.990Z,8.60
2023-04-09T06:03:05.328Z,8.59
2023-04-09T06:04:09.430Z,8.55
2023-04-09T06:05:12.258Z,8.52
2023-04-09T06:06:16.044Z,8.56
2023-04-09T06:07:18.624Z,8.54
2023-04-09T06:08:22.263Z,8.58
2023-04-09T06:09:24.501Z,8.58
2023-04-09T06:10:29.133Z,8.48
2023-04-09T06:11:32.611Z,8.43
2023-04-09T06:12:36.755Z,8.49
2023-04-09T06:13:41.754Z,8.52
2023-04-09T06:14:44.268Z,8.43
2023-04-09T06:15:48.561Z,8.48
2023-04-09T06:16:51.130Z,8.45
2023-04-09T06:17:56.545Z,8.45
2023-04-09T06:19:01.183Z,8.45
2023-04-09T06:20:05.426Z,8.43
2023-04-09T06:21:10.349Z,8.33
2023-04-09T06:22:12.997Z,8.37
2023-04-09T06:23:16.580Z,8.39
2023-04-09T06:24:18.897Z,8.30
2023-04-09T06:25:22.770Z,8.34
2023-04-09T06:26:25.509Z,8.34
2023-04-09T06:27:29.213Z,8.39
2023-04-09T06:28:31.823Z,8.43
2023-04-09T06:29:36.761Z,8.45
2023-04-09T06:30:40.385Z,8.46
2023-04-09T06:31:44.117Z,8.43
2023-04-09T06:32:54.573Z,8.45
2023-04-09T06:33:59.033Z,8.42
2023-04-09T06:35:01.553Z,8.41
2023-04-09T06:36:05.580Z,8.43
2023-04-09T06:37:09.330Z,8.51
2023-04-09T06:38:11.520Z,8.57
2023-04-09T06:39:15.190Z,8.59
2023-04-09T06:40:17.523Z,8.58
2023-04-09T06:41:22.813Z,8.55
2023-04-09T06:42:26.878Z,8.54
2023-04-09T06:43:30.910Z,8.55
2023-04-09T06:44:36.804Z,8.48
2023-04-09T06:45:41.174Z,8.52
2023-04-09T06:46:44.868Z,8.50
2023-04-09T06:47:47.686Z,8.54
2023-04-09T06:48:51.656Z,8.56
2023-04-09T06:49:54.116Z,8.62
2023-04-09T06:50:57.707Z,8.57
2023-04-09T06:52:00.288Z,8.59
2023-04-09T06:53:04.303Z,8.67
2023-04-09T06:54:06.938Z,8.67
2023-04-09T06:55:11.733Z,8.67
2023-04-09T06:56:14.652Z,8.73
2023-04-09T06:57:18.171Z,8.80
2023-04-09T06:58:22.636Z,8.85
2023-04-09T06:59:25.135Z,8.90
2023-04-09T07:00:30.396Z,8.90
2023-04-09T07:01:33.606Z,8.94
2023-04-09T07:02:37.665Z,9.02
2023-04-09T07:03:42.089Z,9.03
2023-04-09T07:04:44.883Z,9.10
2023-04-09T07:05:48.724Z,9.16
2023-04-09T07:06:51.895Z,9.18
2023-04-09T07:07:55.744Z,9.19
2023-04-09T07:08:58.573Z,9.26
2023-04-09T07:10:02.921Z,9.28
2023-04-09T07:11:07.301Z,9.31
2023-04-09T07:12:09.470Z,9.34
2023-04-09T07:13:13.118Z,9.36
2023-04-09T07:14:15.862Z,9.38
2023-04-09T07:15:19.493Z,9.38
2023-04-09T07:16:23.727Z,9.41
2023-04-09T07:17:27.618Z,9.42
2023-04-09T07:18:31.524Z,9.42
2023-04-09T07:19:34.857Z,9.41
2023-04-09T07:20:37.337Z,9.43
2023-04-09T07:21:41.165Z,9.44
2023-04-09T07:22:43.658Z,9.47
2023-04-09T07:23:48.278Z,9.49
2023-04-09T07:24:54.442Z,9.51
2023-04-09T07:25:58.248Z,9.49
2023-04-09T07:27:04.006Z,9.49
2023-04-09T07:28:07.744Z,9.50
2023-04-09T07:29:11.784Z,9.45
2023-04-09T07:30:14.656Z,9.44
2023-04-09T07:31:18.539Z,9.19
2023-04-09T07:32:23.834Z,9.25
2023-04-09T07:33:26.563Z,9.13
2023-04-09T07:34:30.104Z,9.17
2023-04-09T07:35:35.043Z,9.14
2023-04-09T07:36:38.946Z,9.14
2023-04-09T07:37:42.601Z,9.20
2023-04-09T07:38:45.198Z,9.14
2023-04-09T07:39:49.022Z,8.97
2023-04-09T07:40:52.003Z,9.00
2023-04-09T07:41:56.637Z,9.05
2023-04-09T07:43:00.251Z,9.09
2023-04-09T07:44:04.010Z,9.09
2023-04-09T07:45:08.952Z,9.11
2023-04-09T07:46:12.855Z,9.16
2023-04-09T07:47:15.898Z,9.21
2023-04-09T07:48:21.186Z,9.27
2023-04-09T07:49:23.768Z,9.30
2023-04-09T07:50:27.519Z,9.32
2023-04-09T07:51:30.272Z,9.37
2023-04-09T07:52:34.109Z,9.41
2023-04-09T07:53:37.823Z,9.37
2023-04-09T07:54:41.418Z,9.37
2023-04-09T07:56:02.364Z,9.39
2023-04-09T07:57:06.270Z,9.28
2023-04-09T07:58:09.823Z,9.31
2023-04-09T07:59:14.007Z,9.33
2023-04-09T08:00:18.958Z,9.34
2023-04-09T08:01:24.754Z,9.35
2023-04-09T08:02:28.960Z,9.36
2023-04-09T08:03:33.388Z,9.36
2023-04-09T08:04:37.362Z,9.27
2023-04-09T08:05:40.574Z,9.33
2023-04-09T08:06:47.068Z,9.37
2023-04-09T08:07:53.661Z,9.21
2023-04-09T08:08:56.247Z,9.27
2023-04-09T08:09:59.969Z,9.24
2023-04-09T08:11:03.310Z,9.26
2023-04-09T08:12:05.978Z,9.31
2023-04-09T08:13:11.460Z,9.32
2023-04-09T08:14:15.888Z,9.33
2023-04-09T08:15:19.749Z,9.38
2023-04-09T08:16:23.824Z,9.40
2023-04-09T08:17:27.705Z,9.39
2023-04-09T08:18:30.983Z,9.39
2023-04-09T08:19:36.367Z,9.37
2023-04-09T08:20:45.326Z,9.34
2023-04-09T08:21:49.948Z,9.33
2023-04-09T08:22:52.445Z,9.33
2023-04-09T08:23:59.902Z,9.35
2023-04-09T08:25:03.644Z,9.33
2023-04-09T08:26:06.287Z,9.34
2023-04-09T08:27:10.043Z,9.33
2023-04-09T08:28:13.726Z,9.34
2023-04-09T08:29:15.998Z,9.18
2023-04-09T08:30:19.721Z,9.18
2023-04-09T08:31:22.497Z,9.20
2023-04-09T08:32:26.353Z,9.25
2023-04-09T08:33:30.510Z,9.19
2023-04-09T08:34:34.511Z,9.22
2023-04-09T08:35:38.447Z,9.25
2023-04-09T08:36:41.153Z,9.29
2023-04-09T08:37:45.126Z,9.34
2023-04-09T08:38:47.911Z,9.32
2023-04-09T08:39:52.264Z,9.36
2023-04-09T08:40:54.811Z,9.37
2023-04-09T08:42:01.961Z,9.40
2023-04-09T08:43:09.102Z,9.44
2023-04-09T08:44:11.753Z,9.48
2023-04-09T08:45:15.790Z,9.52
2023-04-09T08:46:19.012Z,9.56
2023-04-09T08:47:23.110Z,9.57
2023-04-09T08:48:26.013Z,9.59
2023-04-09T08:49:29.766Z,9.63
2023-04-09T08:50:35.289Z,9.66
2023-04-09T08:51:37.998Z,9.69
2023-04-09T08:52:42.390Z,9.74
2023-04-09T08:53:47.800Z,9.78
2023-04-09T08:54:53.147Z,9.75
2023-04-09T08:55:56.025Z,9.67
2023-04-09T08:56:59.621Z,9.70
2023-04-09T08:58:05.274Z,9.77
2023-04-09T08:59:09.012Z,9.80
2023-04-09T09:00:13.777Z,9.83
2023-04-09T09:01:21.916Z,9.82
2023-04-09T09:02:25.689Z,9.90
2023-04-09T09:03:28.504Z,9.90
2023-04-09T09:04:46.736Z,9.92
2023-04-09T09:05:51.974Z,9.93
2023-04-09T09:06:56.697Z,9.99
2023-04-09T09:08:01.948Z,9.99
2023-04-09T09:09:06.747Z,10.01
2023-04-09T09:10:11.101Z,10.02
2023-04-09T09:11:27.156Z,10.06
2023-04-09T09:12:34.028Z,10.03
2023-04-09T09:13:37.818Z,9.97
2023-04-09T09:14:40.449Z,10.03
2023-04-09T09:15:44.318Z,10.04
2023-04-09T09:17:08.523Z,10.08
2023-04-09T09:18:12.632Z,10.08
2023-04-09T09:19:31.693Z,10.04
2023-04-09T09:20:34.377Z,10.05
2023-04-09T09:21:40.723Z,10.00
2023-04-09T09:22:55.045Z,10.02
2023-04-09T09:23:59.481Z,10.02
2023-04-09T09:25:02.072Z,9.91
2023-04-09T09:26:12.836Z,9.90
2023-04-09T09:27:33.230Z,9.91
2023-04-09T09:28:36.503Z,9.90
2023-04-09T09:29:45.162Z,9.86
2023-04-09T09:30:49.122Z,9.85
2023-04-09T09:31:54.789Z,9.81
2023-04-09T09:33:07.848Z,9.70
2023-04-09T09:34:11.636Z,9.72
2023-04-09T09:35:14.377Z,9.75
2023-04-09T09:36:31.746Z,9.76
2023-04-09T09:37:35.812Z,9.81
2023-04-09T09:38:57.334Z,9.87
2023-04-09T09:40:00.677Z,9.86
2023-04-09T09:41:18.857Z,9.98
2023-04-09T09:42:22.754Z,10.02
2023-04-09T09:43:25.356Z,10.03
2023-04-09T09:44:35.475Z,10.10
2023-04-09T09:45:38.344Z,10.15
2023-04-09T09:46:43.685Z,10.23
2023-04-09T09:47:47.521Z,10.27
2023-04-09T09:48:51.636Z,10.32
2023-04-09T09:49:54.820Z,10.36
2023-04-09T09:50:59.102Z,10.38
2023-04-09T09:52:04.623Z,10.43
2023-04-09T09:53:12.045Z,10.45
2023-04-09T09:54:23.691Z,10.49
2023-04-09T09:55:32.456Z,10.56
2023-04-09T09:56:39.697Z,10.53
2023-04-09T09:57:45.260Z,10.54
2023-04-09T09:58:54.451Z,10.58
2023-04-09T10:00:02.282Z,10.64
2023-04-09T10:01:09.543Z,10.68
2023-04-09T10:02:18.949Z,10.74
2023-04-09T10:03:26.950Z,10.74
2023-04-09T10:04:35.279Z,10.75
2023-04-09T10:05:39.336Z,10.81
2023-04-09T10:06:45.341Z,10.89
2023-04-09T10:07:50.178Z,10.86
2023-04-09T10:08:58.640Z,10.89
2023-04-09T10:10:02.912Z,10.90
2023-04-09T10:11:07.966Z,10.92
2023-04-09T10:12:11.423Z,10.95
2023-04-09T10:13:21.957Z,10.97
2023-04-09T10:14:26.690Z,11.03
2023-04-09T10:15:30.096Z,11.09
2023-04-09T10:16:35.099Z,11.08
2023-04-09T10:17:39.107Z,11.13
2023-04-09T10:18:44.184Z,11.19
2023-04-09T10:19:56.261Z,11.26
2023-04-09T10:21:00.152Z,11.30
2023-04-09T10:22:10.024Z,11.37
2023-04-09T10:23:20.189Z,11.32
2023-04-09T10:24:26.071Z,11.35
2023-04-09T10:25:29.021Z,11.28
2023-04-09T10:26:35.904Z,11.37
2023-04-09T10:27:38.554Z,11.33
2023-04-09T10:28:42.681Z,11.29
2023-04-09T10:29:50.027Z,11.23
2023-04-09T10:30:57.793Z,11.05
2023-04-09T10:32:07.154Z,11.09
2023-04-09T10:33:11.551Z,11.15
2023-04-09T10:34:17.386Z,11.19
2023-04-09T10:35:26.049Z,11.23
2023-04-09T10:36:32.950Z,11.27
2023-04-09T10:37:37.491Z,11.33
2023-04-09T10:38:41.780Z,11.39
2023-04-09T10:39:50.147Z,11.45
2023-04-09T10:40:53.628Z,11.47
2023-04-09T10:41:58.427Z,11.44
2023-04-09T10:43:03.264Z,11.61
2023-04-09T10:44:07.700Z,11.76
2023-04-09T10:45:12.344Z,11.83
2023-04-09T10:46:28.175Z,12.01
2023-04-09T10:47:34.889Z,12.09
2023-04-09T10:48:38.640Z,12.21
2023-04-09T10:49:41.401Z,12.34
2023-04-09T10:50:46.044Z,12.41
2023-04-09T10:52:02.140Z,12.49
2023-04-09T10:53:05.498Z,12.62
2023-04-09T10:54:52.884Z,12.80
2023-04-09T10:55:58.192Z,12.98
2023-04-09T10:57:22.366Z,13.16
2023-04-09T10:58:26.231Z,13.30
2023-04-09T10:59:28.728Z,13.38
2023-04-09T11:00:32.486Z,13.49
2023-04-09T11:01:35.271Z,13.56
2023-04-09T11:03:04.889Z,13.55
2023-04-09T11:04:14.739Z,13.52
2023-04-09T11:05:22.387Z,13.65
2023-04-09T11:06:26.678Z,13.70
2023-04-09T11:07:30.779Z,13.91
2023-04-09T11:08:35.426Z,13.83
2023-04-09T11:09:38.672Z,13.68
2023-04-09T11:10:45.403Z,13.71
2023-04-09T11:11:57.772Z,13.71
2023-04-09T11:13:00.866Z,13.80
2023-04-09T11:14:05.104Z,13.79
2023-04-09T11:15:16.688Z,13.86
2023-04-09T11:16:24.700Z,13.80
2023-04-09T11:17:29.023Z,13.88
2023-04-09T11:18:34.816Z,13.97
2023-04-09T11:19:37.577Z,14.07
2023-04-09T11:20:42.293Z,14.09
2023-04-09T11:21:46.453Z,14.17
2023-04-09T11:22:51.503Z,14.17
2023-04-09T11:23:55.590Z,14.24
2023-04-09T11:24:58.199Z,14.38
2023-04-09T11:26:02.314Z,14.51
2023-04-09T11:27:06.351Z,14.58
2023-04-09T11:28:10.119Z,14.71
2023-04-09T11:29:13.541Z,14.86
2023-04-09T11:30:17.238Z,14.99
2023-04-09T11:31:21.180Z,15.02
2023-04-09T11:32:29.149Z,15.09
2023-04-09T11:33:35.498Z,15.19
2023-04-09T11:34:38.543Z,15.27
2023-04-09T11:35:42.349Z,15.31
2023-04-09T11:36:50.866Z,15.48
2023-04-09T11:37:54.596Z,15.60
2023-04-09T11:38:57.277Z,15.64
2023-04-09T11:40:01.134Z,15.69
2023-04-09T11:41:04.799Z,15.69
2023-04-09T11:42:14.181Z,15.77
2023-04-09T11:43:18.336Z,15.66
2023-04-09T11:44:22.267Z,15.35
2023-04-09T11:45:27.943Z,15.42
2023-04-09T11:46:32.360Z,15.45
2023-04-09T11:47:35.861Z,15.45
2023-04-09T11:48:39.278Z,15.51
2023-04-09T11:49:42.422Z,15.67
2023-04-09T11:50:46.107Z,15.64
2023-04-09T11:51:48.765Z,15.80
2023-04-09T11:52:52.767Z,15.97
2023-04-09T11:53:55.300Z,16.21
2023-04-09T11:55:02.594Z,16.36
2023-04-09T11:56:07.476Z,16.43
2023-04-09T11:57:11.437Z,16.52
2023-04-09T11:58:15.250Z,16.69
2023-04-09T11:59:19.347Z,16.86
2023-04-09T12:00:25.087Z,16.97
2023-04-09T12:01:33.459Z,17.16
2023-04-09T12:02:39.031Z,17.13
2023-04-09T12:03:43.557Z,17.09
2023-04-09T12:04:51.253Z,17.17
2023-04-09T12:05:55.054Z,17.01
2023-04-09T12:06:59.038Z,17.00
2023-04-09T12:08:05.200Z,16.70
2023-04-09T12:09:09.624Z,16.54
2023-04-09T12:10:14.095Z,16.18
2023-04-09T12:11:17.893Z,16.29
2023-04-09T12:12:24.866Z,16.26
2023-04-09T12:13:34.743Z,16.26
2023-04-09T12:14:37.414Z,16.26
2023-04-09T12:15:43.736Z,16.04
2023-04-09T12:16:46.615Z,15.90
2023-04-09T12:17:52.306Z,16.02
2023-04-09T12:18:55.980Z,16.08
2023-04-09T12:19:59.364Z,16.17
2023-04-09T12:21:03.241Z,15.89
2023-04-09T12:22:06.265Z,16.05
2023-04-09T12:23:10.807Z,16.10
2023-04-09T12:24:13.456Z,15.97
2023-04-09T12:25:17.580Z,15.68
2023-04-09T12:26:21.328Z,15.82
2023-04-09T12:27:25.263Z,15.98
2023-04-09T12:28:29.556Z,16.07
2023-04-09T12:29:33.674Z,16.28
2023-04-09T12:30:37.654Z,16.49
2023-04-09T12:31:40.468Z,16.29
2023-04-09T12:32:46.149Z,16.04
2023-04-09T12:33:49.750Z,16.10
2023-04-09T12:34:52.075Z,16.14
2023-04-09T12:35:58.458Z,15.99
2023-04-09T12:37:01.439Z,16.04
2023-04-09T12:38:05.861Z,16.17
2023-04-09T12:39:09.170Z,16.22
2023-04-09T12:40:14.402Z,16.33
2023-04-09T12:41:17.239Z,16.37
2023-04-09T12:42:20.794Z,16.48
2023-04-09T12:43:25.542Z,16.54
2023-04-09T12:44:28.075Z,16.58
2023-04-09T12:45:32.764Z,16.52
2023-04-09T12:46:35.653Z,16.41
2023-04-09T12:47:39.978Z,16.45
2023-04-09T12:48:42.655Z,16.38
2023-04-09T12:49:46.949Z,16.41
2023-04-09T12:50:50.764Z,16.51
2023-04-09T12:51:53.436Z,16.55
2023-04-09T12:52:57.068Z,16.66
2023-04-09T12:53:59.768Z,16.76
2023-04-09T12:55:03.595Z,16.83
2023-04-09T12:56:07.426Z,16.93
2023-04-09T12:57:11.240Z,17.02
2023-04-09T12:58:13.893Z,17.09
2023-04-09T12:59:19.123Z,17.20
2023-04-09T13:00:22.866Z,17.26
2023-04-09T13:01:25.506Z,17.30
2023-04-09T13:02:29.587Z,17.19
2023-04-09T13:03:32.721Z,17.10
2023-04-09T13:04:38.324Z,17.06
2023-04-09T13:05:42.072Z,16.89
2023-04-09T13:06:44.646Z,16.70
2023-04-09T13:07:48.367Z,16.39
2023-04-09T13:08:50.884Z,16.37
2023-04-09T13:09:54.465Z,16.23
2023-04-09T13:10:58.177Z,16.02
2023-04-09T13:12:00.657Z,15.83
2023-04-09T13:13:04.699Z,15.61
2023-04-09T13:14:07.214Z,15.34
2023-04-09T13:15:13.196Z,15.10
2023-04-09T13:16:16.383Z,14.95
2023-04-09T13:17:20.038Z,14.77
2023-04-09T13:18:23.721Z,14.62
2023-04-09T13:19:26.347Z,14.48
2023-04-09T13:20:30.750Z,14.34
2023-04-09T13:21:33.540Z,14.21
2023-04-09T13:22:37.587Z,14.08
2023-04-09T13:23:41.394Z,13.97
2023-04-09T13:24:43.871Z,13.86
2023-04-09T13:25:47.497Z,13.76
2023-04-09T13:26:49.666Z,13.66
2023-04-09T13:27:53.385Z,13.47
2023-04-09T13:28:56.188Z,13.36
2023-04-09T13:30:00.109Z,13.18
2023-04-09T13:31:05.786Z,13.11
2023-04-09T13:32:11.303Z,13.04
2023-04-09T13:33:15.200Z,12.99
2023-04-09T13:34:17.812Z,12.95
2023-04-09T13:35:21.658Z,12.87
2023-04-09T13:36:24.726Z,12.82
2023-04-09T13:37:28.556Z,12.76
2023-04-09T13:38:31.354Z,12.67
2023-04-09T13:39:35.047Z,12.67
2023-04-09T13:40:38.384Z,12.62
2023-04-09T13:41:41.086Z,12.55
2023-04-09T13:42:44.934Z,12.30
2023-04-09T13:43:47.555Z,12.30
2023-04-09T13:44:51.361Z,12.24
2023-04-09T13:45:54.304Z,12.19
2023-04-09T13:46:59.544Z,12.14
2023-04-09T13:48:02.763Z,12.02
2023-04-09T13:49:06.444Z,11.91
2023-04-09T13:50:12.241Z,11.89
2023-04-09T13:51:14.849Z,11.86
2023-04-09T13:52:18.640Z,11.76
2023-04-09T13:53:22.128Z,11.76
2023-04-09T13:54:25.882Z,11.67
2023-04-09T13:55:28.409Z,11.67
2023-04-09T13:56:32.993Z,11.64
2023-04-09T13:57:36.779Z,11.50
2023-04-09T13:58:39.481Z,11.45
2023-04-09T13:59:44.252Z,11.43
2023-04-09T14:00:46.944Z,11.37
2023-04-09T14:01:50.749Z,11.30
2023-04-09T14:02:54.863Z,11.30
2023-04-09T14:03:58.577Z,11.25
2023-04-09T14:05:02.716Z,11.23
2023-04-09T14:06:07.104Z,11.19
2023-04-09T14:07:09.636Z,11.16
2023-04-09T14:08:13.533Z,11.12
2023-04-09T14:09:16.436Z,11.09
2023-04-09T14:10:20.145Z,11.10
2023-04-09T14:11:22.822Z,11.09